sensor_id;sensor_type;location;lat;lon;timestamp;temperature;humidity
30308;DHT22;17114;52.314;8.910;2023-05-20T00:00:45;13.20;99.90
30308;DHT22;17114;52.314;8.910;2023-05-20T00:03:15;13.10;99.90
30308;DHT22;17114;52.314;8.910;2023-05-20T00:05:42;13.00;99.90
30308;DHT22;17114;52.314;8.910;2023-05-20T00:08:09;13.00;99.90
30308;DHT22;17114;52.314;8.910;2023-05-20T00:10:37;13.00;99.90
30308;DHT22;17114;52.314;8.910;2023-05-20T00:13:04;12.90;99.90
30308;DHT22;17114;52.314;8.910;2023-05-20T00:15:33;12.90;99.90
30308;DHT22;17114;52.314;8.910;2023-05-20T00:18:03;12.90;99.90
30308;DHT22;17114;52.314;8.910;2023-05-20T00:20:31;12.80;99.90
30308;DHT22;17114;52.314;8.910;2023-05-20T00:22:58;12.80;99.90
30308;DHT22;17114;52.314;8.910;2023-05-20T00:25:25;12.70;99.90
30308;DHT22;17114;52.314;8.910;2023-05-20T00:27:52;12.70;99.90
30308;DHT22;17114;52.314;8.910;2023-05-20T00:30:18;12.70;99.90
30308;DHT22;17114;52.314;8.910;2023-05-20T00:32:46;12.70;99.90
30308;DHT22;17114;52.314;8.910;2023-05-20T00:35:13;12.60;99.90
30308;DHT22;17114;52.314;8.910;2023-05-20T00:37:40;12.60;99.90
30308;DHT22;17114;52.314;8.910;2023-05-20T00:40:07;12.50;99.90
30308;DHT22;17114;52.314;8.910;2023-05-20T00:42:34;12.50;99.90
30308;DHT22;17114;52.314;8.910;2023-05-20T00:45:01;12.50;99.90
30308;DHT22;17114;52.314;8.910;2023-05-20T00:47:31;12.40;99.90
30308;DHT22;17114;52.314;8.910;2023-05-20T00:49:58;12.40;99.90
30308;DHT22;17114;52.314;8.910;2023-05-20T00:52:28;12.30;99.90
30308;DHT22;17114;52.314;8.910;2023-05-20T00:54:57;12.30;99.90
30308;DHT22;17114;52.314;8.910;2023-05-20T00:57:25;12.30;99.90
30308;DHT22;17114;52.314;8.910;2023-05-20T00:59:52;12.20;99.90
30308;DHT22;17114;52.314;8.910;2023-05-20T01:02:20;12.10;99.90
30308;DHT22;17114;52.314;8.910;2023-05-20T01:04:47;12.10;99.90
30308;DHT22;17114;52.314;8.910;2023-05-20T01:07:16;12.00;99.90
30308;DHT22;17114;52.314;8.910;2023-05-20T01:09:43;11.90;99.90
30308;DHT22;17114;52.314;8.910;2023-05-20T01:12:21;11.90;99.90
30308;DHT22;17114;52.314;8.910;2023-05-20T01:17:24;11.80;99.90
30308;DHT22;17114;52.314;8.910;2023-05-20T01:19:54;11.70;99.90
30308;DHT22;17114;52.314;8.910;2023-05-20T01:22:26;11.70;99.90
30308;DHT22;17114;52.314;8.910;2023-05-20T01:24:53;11.70;99.90
30308;DHT22;17114;52.314;8.910;2023-05-20T01:27:21;11.60;99.90
30308;DHT22;17114;52.314;8.910;2023-05-20T01:29:51;11.60;99.90
30308;DHT22;17114;52.314;8.910;2023-05-20T01:32:25;11.50;99.90
30308;DHT22;17114;52.314;8.910;2023-05-20T01:34:54;11.50;99.90
30308;DHT22;17114;52.314;8.910;2023-05-20T01:37:22;11.50;99.90
30308;DHT22;17114;52.314;8.910;2023-05-20T01:39:52;11.40;99.90
30308;DHT22;17114;52.314;8.910;2023-05-20T01:42:20;11.30;99.90
30308;DHT22;17114;52.314;8.910;2023-05-20T01:44:47;11.20;99.90
30308;DHT22;17114;52.314;8.910;2023-05-20T01:47:13;11.20;99.90
30308;DHT22;17114;52.314;8.910;2023-05-20T01:49:40;11.10;99.90
30308;DHT22;17114;52.314;8.910;2023-05-20T01:52:07;11.10;99.90
30308;DHT22;17114;52.314;8.910;2023-05-20T01:54:34;11.20;99.90
30308;DHT22;17114;52.314;8.910;2023-05-20T01:57:01;10.90;99.90
30308;DHT22;17114;52.314;8.910;2023-05-20T01:59:28;10.90;99.90
30308;DHT22;17114;52.314;8.910;2023-05-20T02:01:55;10.90;99.90
30308;DHT22;17114;52.314;8.910;2023-05-20T02:04:22;10.90;99.90
30308;DHT22;17114;52.314;8.910;2023-05-20T02:06:49;10.80;99.90
30308;DHT22;17114;52.314;8.910;2023-05-20T02:09:17;10.80;99.90
30308;DHT22;17114;52.314;8.910;2023-05-20T02:11:44;10.90;99.90
30308;DHT22;17114;52.314;8.910;2023-05-20T02:14:11;10.70;99.90
30308;DHT22;17114;52.314;8.910;2023-05-20T02:16:38;10.70;99.90
30308;DHT22;17114;52.314;8.910;2023-05-20T02:19:05;10.60;99.90
30308;DHT22;17114;52.314;8.910;2023-05-20T02:21:32;10.60;99.90
30308;DHT22;17114;52.314;8.910;2023-05-20T02:24:00;10.60;99.90
30308;DHT22;17114;52.314;8.910;2023-05-20T02:26:27;10.50;99.90
30308;DHT22;17114;52.314;8.910;2023-05-20T02:28:54;10.50;99.90
30308;DHT22;17114;52.314;8.910;2023-05-20T02:31:21;10.50;99.90
30308;DHT22;17114;52.314;8.910;2023-05-20T02:33:48;10.40;99.90
30308;DHT22;17114;52.314;8.910;2023-05-20T02:36:15;10.40;99.90
30308;DHT22;17114;52.314;8.910;2023-05-20T02:38:43;10.40;99.90
30308;DHT22;17114;52.314;8.910;2023-05-20T02:41:10;10.40;99.90
30308;DHT22;17114;52.314;8.910;2023-05-20T02:43:37;10.40;99.90
30308;DHT22;17114;52.314;8.910;2023-05-20T02:46:04;10.40;99.90
30308;DHT22;17114;52.314;8.910;2023-05-20T02:48:31;10.50;99.90
30308;DHT22;17114;52.314;8.910;2023-05-20T02:50:58;10.40;99.90
30308;DHT22;17114;52.314;8.910;2023-05-20T02:53:25;10.40;99.90
30308;DHT22;17114;52.314;8.910;2023-05-20T02:55:52;10.30;99.90
30308;DHT22;17114;52.314;8.910;2023-05-20T02:58:20;10.30;99.90
30308;DHT22;17114;52.314;8.910;2023-05-20T03:00:52;10.30;99.90
30308;DHT22;17114;52.314;8.910;2023-05-20T03:03:19;10.30;99.90
30308;DHT22;17114;52.314;8.910;2023-05-20T03:05:46;10.20;99.90
30308;DHT22;17114;52.314;8.910;2023-05-20T03:08:12;10.30;99.90
30308;DHT22;17114;52.314;8.910;2023-05-20T03:10:40;10.30;99.90
30308;DHT22;17114;52.314;8.910;2023-05-20T03:13:07;10.30;99.90
30308;DHT22;17114;52.314;8.910;2023-05-20T03:15:38;10.30;99.90
30308;DHT22;17114;52.314;8.910;2023-05-20T03:18:06;10.20;99.90
30308;DHT22;17114;52.314;8.910;2023-05-20T03:20:34;10.10;99.90
30308;DHT22;17114;52.314;8.910;2023-05-20T03:23:04;10.10;99.90
30308;DHT22;17114;52.314;8.910;2023-05-20T03:25:31;10.10;99.90
30308;DHT22;17114;52.314;8.910;2023-05-20T03:27:59;10.10;99.90
30308;DHT22;17114;52.314;8.910;2023-05-20T03:30:26;10.00;99.90
30308;DHT22;17114;52.314;8.910;2023-05-20T03:32:54;9.90;99.90
30308;DHT22;17114;52.314;8.910;2023-05-20T03:35:24;9.90;99.90
30308;DHT22;17114;52.314;8.910;2023-05-20T03:37:51;9.70;99.90
30308;DHT22;17114;52.314;8.910;2023-05-20T03:40:19;9.80;99.90
30308;DHT22;17114;52.314;8.910;2023-05-20T03:42:46;9.80;99.90
30308;DHT22;17114;52.314;8.910;2023-05-20T03:45:13;9.80;99.90
30308;DHT22;17114;52.314;8.910;2023-05-20T03:47:40;9.80;99.90
30308;DHT22;17114;52.314;8.910;2023-05-20T03:50:07;9.90;99.90
30308;DHT22;17114;52.314;8.910;2023-05-20T03:52:34;9.80;99.90
30308;DHT22;17114;52.314;8.910;2023-05-20T03:55:01;9.80;99.90
30308;DHT22;17114;52.314;8.910;2023-05-20T03:57:28;9.80;99.90
30308;DHT22;17114;52.314;8.910;2023-05-20T03:59:55;9.80;99.90
30308;DHT22;17114;52.314;8.910;2023-05-20T04:02:22;9.90;99.90
30308;DHT22;17114;52.314;8.910;2023-05-20T04:04:49;9.90;99.90
30308;DHT22;17114;52.314;8.910;2023-05-20T04:07:19;9.80;99.90
30308;DHT22;17114;52.314;8.910;2023-05-20T04:09:46;9.90;99.90
30308;DHT22;17114;52.314;8.910;2023-05-20T04:12:12;9.90;99.90
30308;DHT22;17114;52.314;8.910;2023-05-20T04:14:39;9.90;99.90
30308;DHT22;17114;52.314;8.910;2023-05-20T04:17:07;10.00;99.90
30308;DHT22;17114;52.314;8.910;2023-05-20T04:19:35;9.90;99.90
30308;DHT22;17114;52.314;8.910;2023-05-20T04:22:03;9.90;99.90
30308;DHT22;17114;52.314;8.910;2023-05-20T04:24:30;9.90;99.90
30308;DHT22;17114;52.314;8.910;2023-05-20T04:26:57;10.00;99.90
30308;DHT22;17114;52.314;8.910;2023-05-20T04:29:24;10.00;99.90
30308;DHT22;17114;52.314;8.910;2023-05-20T04:31:51;10.10;99.90
30308;DHT22;17114;52.314;8.910;2023-05-20T04:34:19;10.30;99.90
30308;DHT22;17114;52.314;8.910;2023-05-20T04:36:52;10.30;99.90
30308;DHT22;17114;52.314;8.910;2023-05-20T04:39:19;10.40;99.90
30308;DHT22;17114;52.314;8.910;2023-05-20T04:41:46;10.40;99.90
30308;DHT22;17114;52.314;8.910;2023-05-20T04:44:13;10.40;99.90
30308;DHT22;17114;52.314;8.910;2023-05-20T04:46:40;10.30;99.90
30308;DHT22;17114;52.314;8.910;2023-05-20T04:49:07;10.40;99.90
30308;DHT22;17114;52.314;8.910;2023-05-20T04:51:34;10.40;99.90
30308;DHT22;17114;52.314;8.910;2023-05-20T04:54:01;10.30;99.90
30308;DHT22;17114;52.314;8.910;2023-05-20T04:56:28;10.30;99.90
30308;DHT22;17114;52.314;8.910;2023-05-20T04:58:55;10.30;99.90
30308;DHT22;17114;52.314;8.910;2023-05-20T05:01:22;10.30;99.90
30308;DHT22;17114;52.314;8.910;2023-05-20T05:03:49;10.20;99.90
30308;DHT22;17114;52.314;8.910;2023-05-20T05:06:16;10.20;99.90
30308;DHT22;17114;52.314;8.910;2023-05-20T05:08:42;10.20;99.90
30308;DHT22;17114;52.314;8.910;2023-05-20T05:11:09;10.20;99.90
30308;DHT22;17114;52.314;8.910;2023-05-20T05:13:36;10.20;99.90
30308;DHT22;17114;52.314;8.910;2023-05-20T05:16:03;10.30;99.90
30308;DHT22;17114;52.314;8.910;2023-05-20T05:18:30;10.30;99.90
30308;DHT22;17114;52.314;8.910;2023-05-20T05:21:04;10.40;99.90
30308;DHT22;17114;52.314;8.910;2023-05-20T05:23:32;10.50;99.90
30308;DHT22;17114;52.314;8.910;2023-05-20T05:25:59;10.50;99.90
30308;DHT22;17114;52.314;8.910;2023-05-20T05:28:25;10.60;99.90
30308;DHT22;17114;52.314;8.910;2023-05-20T05:30:56;10.70;99.90
30308;DHT22;17114;52.314;8.910;2023-05-20T05:33:22;11.00;99.90
30308;DHT22;17114;52.314;8.910;2023-05-20T05:35:50;11.20;99.90
30308;DHT22;17114;52.314;8.910;2023-05-20T05:38:17;11.40;99.90
30308;DHT22;17114;52.314;8.910;2023-05-20T05:40:44;11.50;99.90
30308;DHT22;17114;52.314;8.910;2023-05-20T05:43:11;11.50;99.90
30308;DHT22;17114;52.314;8.910;2023-05-20T05:45:38;11.60;99.90
30308;DHT22;17114;52.314;8.910;2023-05-20T05:48:04;11.70;99.90
30308;DHT22;17114;52.314;8.910;2023-05-20T05:50:31;11.80;99.90
30308;DHT22;17114;52.314;8.910;2023-05-20T05:52:58;11.90;99.90
30308;DHT22;17114;52.314;8.910;2023-05-20T05:55:25;12.10;99.90
30308;DHT22;17114;52.314;8.910;2023-05-20T05:57:52;12.20;99.90
30308;DHT22;17114;52.314;8.910;2023-05-20T06:00:19;12.40;99.90
30308;DHT22;17114;52.314;8.910;2023-05-20T06:02:46;12.50;99.90
30308;DHT22;17114;52.314;8.910;2023-05-20T06:05:14;12.60;99.90
30308;DHT22;17114;52.314;8.910;2023-05-20T06:07:41;12.70;99.90
30308;DHT22;17114;52.314;8.910;2023-05-20T06:10:08;12.60;99.90
30308;DHT22;17114;52.314;8.910;2023-05-20T06:12:35;13.00;99.90
30308;DHT22;17114;52.314;8.910;2023-05-20T06:15:02;13.10;99.90
30308;DHT22;17114;52.314;8.910;2023-05-20T06:17:29;13.10;99.90
30308;DHT22;17114;52.314;8.910;2023-05-20T06:19:56;13.20;99.90
30308;DHT22;17114;52.314;8.910;2023-05-20T06:22:23;13.70;99.90
30308;DHT22;17114;52.314;8.910;2023-05-20T06:24:50;14.20;99.90
30308;DHT22;17114;52.314;8.910;2023-05-20T06:27:17;14.70;99.90
30308;DHT22;17114;52.314;8.910;2023-05-20T06:29:44;15.50;99.90
30308;DHT22;17114;52.314;8.910;2023-05-20T06:32:10;16.10;99.90
30308;DHT22;17114;52.314;8.910;2023-05-20T06:34:38;16.50;99.90
30308;DHT22;17114;52.314;8.910;2023-05-20T06:37:05;16.90;99.90
30308;DHT22;17114;52.314;8.910;2023-05-20T06:39:32;17.40;99.90
30308;DHT22;17114;52.314;8.910;2023-05-20T06:41:58;18.10;99.90
30308;DHT22;17114;52.314;8.910;2023-05-20T06:44:25;18.60;99.90
30308;DHT22;17114;52.314;8.910;2023-05-20T06:46:52;19.10;99.90
30308;DHT22;17114;52.314;8.910;2023-05-20T06:49:20;19.40;99.90
30308;DHT22;17114;52.314;8.910;2023-05-20T06:51:47;19.60;99.90
30308;DHT22;17114;52.314;8.910;2023-05-20T06:54:14;19.90;99.90
30308;DHT22;17114;52.314;8.910;2023-05-20T06:56:41;19.90;99.90
30308;DHT22;17114;52.314;8.910;2023-05-20T06:59:08;20.00;99.90
30308;DHT22;17114;52.314;8.910;2023-05-20T07:01:35;20.10;99.90
30308;DHT22;17114;52.314;8.910;2023-05-20T07:04:02;20.30;99.90
30308;DHT22;17114;52.314;8.910;2023-05-20T07:06:29;20.00;99.90
30308;DHT22;17114;52.314;8.910;2023-05-20T07:08:57;19.80;99.90
30308;DHT22;17114;52.314;8.910;2023-05-20T07:11:24;20.00;99.90
30308;DHT22;17114;52.314;8.910;2023-05-20T07:13:51;20.30;99.90
30308;DHT22;17114;52.314;8.910;2023-05-20T07:16:19;20.50;99.90
30308;DHT22;17114;52.314;8.910;2023-05-20T07:18:46;20.70;99.90
30308;DHT22;17114;52.314;8.910;2023-05-20T07:21:13;20.50;99.90
30308;DHT22;17114;52.314;8.910;2023-05-20T07:23:40;20.60;99.90
30308;DHT22;17114;52.314;8.910;2023-05-20T07:26:07;20.30;99.90
30308;DHT22;17114;52.314;8.910;2023-05-20T07:28:34;20.70;99.90
30308;DHT22;17114;52.314;8.910;2023-05-20T07:31:02;20.90;99.90
30308;DHT22;17114;52.314;8.910;2023-05-20T07:33:29;21.10;99.90
30308;DHT22;17114;52.314;8.910;2023-05-20T07:35:56;21.30;99.90
30308;DHT22;17114;52.314;8.910;2023-05-20T07:38:23;21.30;99.90
30308;DHT22;17114;52.314;8.910;2023-05-20T07:40:50;21.50;99.90
30308;DHT22;17114;52.314;8.910;2023-05-20T07:43:18;21.50;99.90
30308;DHT22;17114;52.314;8.910;2023-05-20T07:45:45;21.50;99.90
30308;DHT22;17114;52.314;8.910;2023-05-20T07:48:12;21.30;99.90
30308;DHT22;17114;52.314;8.910;2023-05-20T07:50:39;21.10;99.90
30308;DHT22;17114;52.314;8.910;2023-05-20T07:53:09;21.20;99.90
30308;DHT22;17114;52.314;8.910;2023-05-20T07:55:37;21.40;99.90
30308;DHT22;17114;52.314;8.910;2023-05-20T07:58:04;22.00;99.90
30308;DHT22;17114;52.314;8.910;2023-05-20T08:00:31;22.60;99.90
30308;DHT22;17114;52.314;8.910;2023-05-20T08:02:58;22.40;99.90
30308;DHT22;17114;52.314;8.910;2023-05-20T08:05:25;22.00;99.90
30308;DHT22;17114;52.314;8.910;2023-05-20T08:07:52;21.40;99.90
30308;DHT22;17114;52.314;8.910;2023-05-20T08:10:19;21.20;99.90
30308;DHT22;17114;52.314;8.910;2023-05-20T08:12:46;20.90;99.90
30308;DHT22;17114;52.314;8.910;2023-05-20T08:15:13;20.60;99.90
30308;DHT22;17114;52.314;8.910;2023-05-20T08:17:40;21.00;99.90
30308;DHT22;17114;52.314;8.910;2023-05-20T08:20:08;20.80;99.90
30308;DHT22;17114;52.314;8.910;2023-05-20T08:22:35;20.80;99.90
30308;DHT22;17114;52.314;8.910;2023-05-20T08:25:06;20.70;99.90
30308;DHT22;17114;52.314;8.910;2023-05-20T08:27:36;20.70;99.90
30308;DHT22;17114;52.314;8.910;2023-05-20T08:30:04;20.70;99.90
30308;DHT22;17114;52.314;8.910;2023-05-20T08:32:34;20.80;99.90
30308;DHT22;17114;52.314;8.910;2023-05-20T08:35:02;20.70;99.90
30308;DHT22;17114;52.314;8.910;2023-05-20T08:37:29;20.60;99.90
30308;DHT22;17114;52.314;8.910;2023-05-20T08:39:56;20.50;99.90
30308;DHT22;17114;52.314;8.910;2023-05-20T08:42:23;20.40;99.90
30308;DHT22;17114;52.314;8.910;2023-05-20T08:44:54;20.50;99.90
30308;DHT22;17114;52.314;8.910;2023-05-20T08:47:22;20.50;99.90
30308;DHT22;17114;52.314;8.910;2023-05-20T08:49:50;20.50;99.90
30308;DHT22;17114;52.314;8.910;2023-05-20T08:52:20;20.90;99.90
30308;DHT22;17114;52.314;8.910;2023-05-20T08:54:49;20.90;99.90
30308;DHT22;17114;52.314;8.910;2023-05-20T08:57:16;20.70;99.90
30308;DHT22;17114;52.314;8.910;2023-05-20T08:59:44;20.40;99.90
30308;DHT22;17114;52.314;8.910;2023-05-20T09:02:13;20.80;99.90
30308;DHT22;17114;52.314;8.910;2023-05-20T09:04:40;21.20;99.90
30308;DHT22;17114;52.314;8.910;2023-05-20T09:07:07;21.00;99.90
30308;DHT22;17114;52.314;8.910;2023-05-20T09:09:34;21.20;99.90
30308;DHT22;17114;52.314;8.910;2023-05-20T09:12:02;21.70;99.90
30308;DHT22;17114;52.314;8.910;2023-05-20T09:14:30;21.90;99.90
30308;DHT22;17114;52.314;8.910;2023-05-20T09:16:57;22.10;99.90
30308;DHT22;17114;52.314;8.910;2023-05-20T09:19:24;22.20;99.90
30308;DHT22;17114;52.314;8.910;2023-05-20T09:21:53;22.10;99.90
30308;DHT22;17114;52.314;8.910;2023-05-20T09:24:24;21.80;99.90
30308;DHT22;17114;52.314;8.910;2023-05-20T09:26:51;21.70;99.90
30308;DHT22;17114;52.314;8.910;2023-05-20T09:29:18;21.70;99.90
30308;DHT22;17114;52.314;8.910;2023-05-20T09:31:48;21.50;99.90
30308;DHT22;17114;52.314;8.910;2023-05-20T09:34:16;21.40;99.90
30308;DHT22;17114;52.314;8.910;2023-05-20T09:36:43;21.30;99.90
30308;DHT22;17114;52.314;8.910;2023-05-20T09:39:20;21.50;99.90
30308;DHT22;17114;52.314;8.910;2023-05-20T09:41:55;21.80;99.90
30308;DHT22;17114;52.314;8.910;2023-05-20T09:44:23;21.90;99.90
30308;DHT22;17114;52.314;8.910;2023-05-20T09:46:50;21.30;99.90
30308;DHT22;17114;52.314;8.910;2023-05-20T09:49:19;20.80;99.90
30308;DHT22;17114;52.314;8.910;2023-05-20T09:51:49;20.20;99.90
30308;DHT22;17114;52.314;8.910;2023-05-20T09:54:18;19.70;99.90
30308;DHT22;17114;52.314;8.910;2023-05-20T09:56:46;19.30;99.90
30308;DHT22;17114;52.314;8.910;2023-05-20T09:59:17;19.60;99.90
30308;DHT22;17114;52.314;8.910;2023-05-20T10:01:47;19.30;99.90
30308;DHT22;17114;52.314;8.910;2023-05-20T10:04:16;19.30;99.90
30308;DHT22;17114;52.314;8.910;2023-05-20T10:06:54;19.10;99.90
30308;DHT22;17114;52.314;8.910;2023-05-20T10:15:31;18.70;99.90
30308;DHT22;17114;52.314;8.910;2023-05-20T10:20:49;19.30;99.90
30308;DHT22;17114;52.314;8.910;2023-05-20T10:23:43;19.60;99.90
30308;DHT22;17114;52.314;8.910;2023-05-20T10:26:10;19.70;99.90
30308;DHT22;17114;52.314;8.910;2023-05-20T10:28:39;19.40;99.90
30308;DHT22;17114;52.314;8.910;2023-05-20T10:31:19;19.10;99.90
30308;DHT22;17114;52.314;8.910;2023-05-20T10:33:47;18.80;99.90
30308;DHT22;17114;52.314;8.910;2023-05-20T10:36:28;18.50;99.90
30308;DHT22;17114;52.314;8.910;2023-05-20T10:38:57;18.20;99.90
30308;DHT22;17114;52.314;8.910;2023-05-20T10:41:26;17.80;99.90
30308;DHT22;17114;52.314;8.910;2023-05-20T10:44:04;17.70;99.90
30308;DHT22;17114;52.314;8.910;2023-05-20T10:46:32;17.70;99.90
30308;DHT22;17114;52.314;8.910;2023-05-20T10:49:19;17.60;99.90
30308;DHT22;17114;52.314;8.910;2023-05-20T10:51:53;17.50;99.90
30308;DHT22;17114;52.314;8.910;2023-05-20T10:54:21;17.30;99.90
30308;DHT22;17114;52.314;8.910;2023-05-20T10:56:52;17.20;99.90
30308;DHT22;17114;52.314;8.910;2023-05-20T10:59:20;17.20;99.90
30308;DHT22;17114;52.314;8.910;2023-05-20T11:01:47;17.20;99.90
30308;DHT22;17114;52.314;8.910;2023-05-20T11:04:15;17.30;99.90
30308;DHT22;17114;52.314;8.910;2023-05-20T11:06:50;17.50;99.90
30308;DHT22;17114;52.314;8.910;2023-05-20T11:09:17;17.50;99.90
30308;DHT22;17114;52.314;8.910;2023-05-20T11:11:44;17.40;99.90
30308;DHT22;17114;52.314;8.910;2023-05-20T11:14:11;17.50;99.90
30308;DHT22;17114;52.314;8.910;2023-05-20T11:16:42;17.50;99.90
30308;DHT22;17114;52.314;8.910;2023-05-20T11:19:14;17.60;99.90
30308;DHT22;17114;52.314;8.910;2023-05-20T11:21:43;17.50;99.90
30308;DHT22;17114;52.314;8.910;2023-05-20T11:24:11;17.60;99.90
30308;DHT22;17114;52.314;8.910;2023-05-20T11:26:39;17.50;99.90
30308;DHT22;17114;52.314;8.910;2023-05-20T11:29:06;17.50;99.90
30308;DHT22;17114;52.314;8.910;2023-05-20T11:31:33;17.50;99.90
30308;DHT22;17114;52.314;8.910;2023-05-20T11:34:00;17.50;99.90
30308;DHT22;17114;52.314;8.910;2023-05-20T11:36:28;17.70;99.90
30308;DHT22;17114;52.314;8.910;2023-05-20T11:38:56;17.90;99.90
30308;DHT22;17114;52.314;8.910;2023-05-20T11:41:25;18.00;99.90
30308;DHT22;17114;52.314;8.910;2023-05-20T11:43:58;18.30;99.90
30308;DHT22;17114;52.314;8.910;2023-05-20T11:46:26;18.40;99.90
30308;DHT22;17114;52.314;8.910;2023-05-20T11:48:54;18.70;99.90
30308;DHT22;17114;52.314;8.910;2023-05-20T11:51:28;18.80;99.90
30308;DHT22;17114;52.314;8.910;2023-05-20T11:54:02;18.90;99.90
30308;DHT22;17114;52.314;8.910;2023-05-20T11:56:30;19.20;99.90
30308;DHT22;17114;52.314;8.910;2023-05-20T11:58:59;19.30;99.90
30308;DHT22;17114;52.314;8.910;2023-05-20T12:01:29;19.20;99.90
30308;DHT22;17114;52.314;8.910;2023-05-20T12:03:56;19.10;99.90
30308;DHT22;17114;52.314;8.910;2023-05-20T12:06:23;19.00;99.90
30308;DHT22;17114;52.314;8.910;2023-05-20T12:08:50;18.70;99.90
30308;DHT22;17114;52.314;8.910;2023-05-20T12:11:17;18.60;99.90
30308;DHT22;17114;52.314;8.910;2023-05-20T12:13:44;19.20;99.90
30308;DHT22;17114;52.314;8.910;2023-05-20T12:16:11;19.80;99.90
30308;DHT22;17114;52.314;8.910;2023-05-20T12:18:38;20.10;99.90
30308;DHT22;17114;52.314;8.910;2023-05-20T12:21:05;19.90;99.90
30308;DHT22;17114;52.314;8.910;2023-05-20T12:23:32;19.60;99.90
30308;DHT22;17114;52.314;8.910;2023-05-20T12:26:00;19.50;99.90
30308;DHT22;17114;52.314;8.910;2023-05-20T12:28:27;19.50;99.90
30308;DHT22;17114;52.314;8.910;2023-05-20T12:30:53;19.40;99.90
30308;DHT22;17114;52.314;8.910;2023-05-20T12:33:21;19.20;99.90
30308;DHT22;17114;52.314;8.910;2023-05-20T12:35:48;19.10;99.90
30308;DHT22;17114;52.314;8.910;2023-05-20T12:38:14;19.00;99.90
30308;DHT22;17114;52.314;8.910;2023-05-20T12:40:41;19.00;99.90
30308;DHT22;17114;52.314;8.910;2023-05-20T12:43:09;19.20;99.90
30308;DHT22;17114;52.314;8.910;2023-05-20T12:45:36;19.40;99.90
30308;DHT22;17114;52.314;8.910;2023-05-20T12:48:03;19.70;99.90
30308;DHT22;17114;52.314;8.910;2023-05-20T12:50:31;19.70;99.90
30308;DHT22;17114;52.314;8.910;2023-05-20T12:52:58;19.40;99.90
30308;DHT22;17114;52.314;8.910;2023-05-20T12:55:25;19.30;99.90
30308;DHT22;17114;52.314;8.910;2023-05-20T12:57:53;19.30;99.90
30308;DHT22;17114;52.314;8.910;2023-05-20T13:00:20;19.80;99.90
30308;DHT22;17114;52.314;8.910;2023-05-20T13:02:47;20.20;99.90
30308;DHT22;17114;52.314;8.910;2023-05-20T13:05:15;20.00;99.90
30308;DHT22;17114;52.314;8.910;2023-05-20T13:07:42;20.00;99.90
30308;DHT22;17114;52.314;8.910;2023-05-20T13:10:10;20.00;99.90
30308;DHT22;17114;52.314;8.910;2023-05-20T13:12:37;19.80;99.90
30308;DHT22;17114;52.314;8.910;2023-05-20T13:15:05;19.60;99.90
30308;DHT22;17114;52.314;8.910;2023-05-20T13:17:32;19.40;99.90
30308;DHT22;17114;52.314;8.910;2023-05-20T13:19:59;19.50;99.90
30308;DHT22;17114;52.314;8.910;2023-05-20T13:22:26;19.60;99.90
30308;DHT22;17114;52.314;8.910;2023-05-20T13:24:53;19.60;99.90
30308;DHT22;17114;52.314;8.910;2023-05-20T13:27:19;19.70;99.90
30308;DHT22;17114;52.314;8.910;2023-05-20T13:29:46;19.70;99.90
30308;DHT22;17114;52.314;8.910;2023-05-20T13:32:13;19.70;99.90
30308;DHT22;17114;52.314;8.910;2023-05-20T13:34:40;19.70;99.90
30308;DHT22;17114;52.314;8.910;2023-05-20T13:37:07;19.90;99.90
30308;DHT22;17114;52.314;8.910;2023-05-20T13:39:34;20.00;99.90
30308;DHT22;17114;52.314;8.910;2023-05-20T13:42:02;20.00;99.90
30308;DHT22;17114;52.314;8.910;2023-05-20T13:44:30;19.80;99.90
30308;DHT22;17114;52.314;8.910;2023-05-20T13:46:58;19.60;99.90
30308;DHT22;17114;52.314;8.910;2023-05-20T13:49:25;19.50;99.90
30308;DHT22;17114;52.314;8.910;2023-05-20T13:51:53;19.50;99.90
30308;DHT22;17114;52.314;8.910;2023-05-20T13:54:20;19.70;99.90
30308;DHT22;17114;52.314;8.910;2023-05-20T13:56:47;19.70;99.90
30308;DHT22;17114;52.314;8.910;2023-05-20T13:59:14;19.70;99.90
30308;DHT22;17114;52.314;8.910;2023-05-20T14:01:41;19.40;99.90
30308;DHT22;17114;52.314;8.910;2023-05-20T14:04:11;19.30;99.90
30308;DHT22;17114;52.314;8.910;2023-05-20T14:06:38;19.30;99.90
30308;DHT22;17114;52.314;8.910;2023-05-20T14:09:06;19.40;99.90
30308;DHT22;17114;52.314;8.910;2023-05-20T14:11:35;19.40;99.90
30308;DHT22;17114;52.314;8.910;2023-05-20T14:14:02;19.70;99.90
30308;DHT22;17114;52.314;8.910;2023-05-20T14:16:30;19.90;99.90
30308;DHT22;17114;52.314;8.910;2023-05-20T14:18:57;19.90;99.90
30308;DHT22;17114;52.314;8.910;2023-05-20T14:21:24;20.00;99.90
30308;DHT22;17114;52.314;8.910;2023-05-20T14:23:51;19.90;99.90
30308;DHT22;17114;52.314;8.910;2023-05-20T14:26:18;19.90;99.90
30308;DHT22;17114;52.314;8.910;2023-05-20T14:28:45;20.10;99.90
30308;DHT22;17114;52.314;8.910;2023-05-20T14:31:12;19.90;99.90
30308;DHT22;17114;52.314;8.910;2023-05-20T14:33:39;19.60;99.90
30308;DHT22;17114;52.314;8.910;2023-05-20T14:36:06;19.30;99.90
30308;DHT22;17114;52.314;8.910;2023-05-20T14:38:33;19.10;99.90
30308;DHT22;17114;52.314;8.910;2023-05-20T14:41:00;19.00;99.90
30308;DHT22;17114;52.314;8.910;2023-05-20T14:43:27;19.00;99.90
30308;DHT22;17114;52.314;8.910;2023-05-20T14:45:54;19.00;99.90
30308;DHT22;17114;52.314;8.910;2023-05-20T14:48:21;19.00;99.90
30308;DHT22;17114;52.314;8.910;2023-05-20T14:50:48;19.10;99.90
30308;DHT22;17114;52.314;8.910;2023-05-20T14:53:15;19.00;99.90
30308;DHT22;17114;52.314;8.910;2023-05-20T14:55:42;18.80;99.90
30308;DHT22;17114;52.314;8.910;2023-05-20T14:58:09;18.60;99.90
30308;DHT22;17114;52.314;8.910;2023-05-20T15:00:38;18.60;99.90
30308;DHT22;17114;52.314;8.910;2023-05-20T15:03:05;18.70;99.90
30308;DHT22;17114;52.314;8.910;2023-05-20T15:05:32;18.60;99.90
30308;DHT22;17114;52.314;8.910;2023-05-20T15:07:59;18.50;99.90
30308;DHT22;17114;52.314;8.910;2023-05-20T15:10:26;18.60;99.90
30308;DHT22;17114;52.314;8.910;2023-05-20T15:12:54;18.50;99.90
30308;DHT22;17114;52.314;8.910;2023-05-20T15:15:21;18.40;99.90
30308;DHT22;17114;52.314;8.910;2023-05-20T15:17:48;18.20;99.90
30308;DHT22;17114;52.314;8.910;2023-05-20T15:20:17;18.20;99.90
30308;DHT22;17114;52.314;8.910;2023-05-20T15:22:44;18.20;99.90
30308;DHT22;17114;52.314;8.910;2023-05-20T15:25:13;18.10;99.90
30308;DHT22;17114;52.314;8.910;2023-05-20T15:27:40;18.10;99.90
30308;DHT22;17114;52.314;8.910;2023-05-20T15:30:10;18.10;99.90
30308;DHT22;17114;52.314;8.910;2023-05-20T15:32:38;18.10;99.90
30308;DHT22;17114;52.314;8.910;2023-05-20T15:35:06;18.10;99.90
30308;DHT22;17114;52.314;8.910;2023-05-20T15:37:33;17.90;99.90
30308;DHT22;17114;52.314;8.910;2023-05-20T15:40:00;17.80;99.90
30308;DHT22;17114;52.314;8.910;2023-05-20T15:42:27;17.70;99.90
30308;DHT22;17114;52.314;8.910;2023-05-20T15:44:54;17.60;99.90
30308;DHT22;17114;52.314;8.910;2023-05-20T15:47:21;17.50;99.90